createdAt,value
2018-03-03T00:01:33.794Z,62.20
2018-03-03T00:04:00.039Z,62.40
2018-03-03T00:06:26.353Z,62.90
2018-03-03T00:08:52.529Z,63.00
2018-03-03T00:11:18.672Z,62.60
2018-03-03T00:13:45.418Z,62.70
2018-03-03T00:16:11.591Z,63.20
2018-03-03T00:18:37.873Z,63.30
2018-03-03T00:21:04.781Z,63.20
2018-03-03T00:23:31.142Z,63.10
2018-03-03T00:25:57.310Z,63.40
2018-03-03T00:28:24.227Z,63.60
2018-03-03T00:30:54.432Z,63.60
2018-03-03T00:33:20.537Z,63.50
2018-03-03T00:35:46.650Z,64.20
2018-03-03T00:38:12.791Z,63.40
2018-03-03T00:40:38.892Z,64.30
2018-03-03T00:43:05.098Z,64.40
2018-03-03T00:45:31.987Z,63.80
2018-03-03T00:47:58.213Z,63.70
2018-03-03T00:50:24.898Z,64.60
2018-03-03T00:52:50.988Z,65.10
2018-03-03T00:55:17.105Z,64.50
2018-03-03T00:57:44.123Z,63.90
2018-03-03T01:00:10.323Z,63.90
2018-03-03T01:02:37.066Z,63.70
2018-03-03T01:05:04.035Z,64.20
2018-03-03T01:07:47.182Z,64.20
2018-03-03T01:10:13.724Z,63.80
2018-03-03T01:12:39.853Z,64.00
2018-03-03T01:15:06.721Z,64.30
2018-03-03T01:17:32.854Z,64.30
2018-03-03T01:20:00.505Z,64.10
2018-03-03T01:22:26.615Z,64.10
2018-03-03T01:24:52.765Z,63.80
2018-03-03T01:27:18.890Z,63.90
2018-03-03T01:29:45.234Z,64.00
2018-03-03T01:32:11.537Z,64.20
2018-03-03T01:34:37.702Z,64.40
2018-03-03T01:37:03.867Z,64.70
2018-03-03T01:39:32.845Z,65.70
2018-03-03T01:41:58.990Z,65.80
2018-03-03T01:44:25.099Z,65.20
2018-03-03T01:46:51.255Z,64.80
2018-03-03T01:49:17.380Z,64.90
2018-03-03T01:51:43.511Z,65.10
2018-03-03T01:54:09.660Z,65.40
2018-03-03T01:56:35.794Z,65.40
2018-03-03T01:59:01.940Z,65.30
2018-03-03T02:01:28.841Z,65.50
2018-03-03T02:03:55.699Z,65.00
2018-03-03T02:06:21.932Z,65.10
2018-03-03T02:08:48.069Z,65.90
2018-03-03T02:11:14.180Z,65.50
2018-03-03T02:13:40.290Z,65.00
2018-03-03T02:16:07.139Z,65.40
2018-03-03T02:18:33.447Z,65.40
2018-03-03T02:20:59.588Z,66.40
2018-03-03T02:23:26.146Z,66.00
2018-03-03T02:25:52.253Z,66.00
2018-03-03T02:28:18.388Z,65.80
2018-03-03T02:30:44.543Z,67.10
2018-03-03T02:33:10.672Z,66.20
2018-03-03T02:35:36.819Z,66.90
2018-03-03T02:38:02.975Z,67.00
2018-03-03T02:40:29.151Z,67.10
2018-03-03T02:42:55.298Z,66.80
2018-03-03T02:45:21.408Z,66.60
2018-03-03T02:47:48.317Z,66.80
2018-03-03T02:50:14.401Z,66.80
2018-03-03T02:52:40.791Z,66.10
2018-03-03T02:55:07.785Z,66.40
2018-03-03T02:57:33.980Z,66.40
2018-03-03T03:00:00.110Z,68.20
2018-03-03T03:02:26.221Z,67.20
2018-03-03T03:04:52.316Z,67.20
2018-03-03T03:07:18.428Z,66.00
2018-03-03T03:09:44.649Z,67.10
2018-03-03T03:12:10.800Z,67.30
2018-03-03T03:14:36.916Z,66.50
2018-03-03T03:17:03.040Z,66.90
2018-03-03T03:19:29.166Z,67.40
2018-03-03T03:21:55.291Z,67.30
2018-03-03T03:24:21.412Z,67.60
2018-03-03T03:26:47.528Z,67.90
2018-03-03T03:29:13.645Z,68.30
2018-03-03T03:31:39.867Z,68.50
2018-03-03T03:34:06.124Z,68.90
2018-03-03T03:36:33.109Z,68.20
2018-03-03T03:38:59.500Z,68.20
2018-03-03T03:41:25.794Z,69.00
2018-03-03T03:43:53.066Z,68.60
2018-03-03T03:46:19.215Z,68.90
2018-03-03T03:48:45.301Z,68.00
2018-03-03T03:51:12.452Z,68.90
2018-03-03T03:53:38.645Z,68.90
2018-03-03T03:56:04.822Z,69.50
2018-03-03T03:58:30.995Z,69.60
2018-03-03T04:00:57.860Z,69.00
2018-03-03T04:03:23.959Z,69.00
2018-03-03T04:05:50.135Z,69.90
2018-03-03T04:08:16.318Z,69.90
2018-03-03T04:10:42.458Z,70.00
2018-03-03T04:13:08.689Z,69.90
2018-03-03T04:15:34.916Z,70.00
2018-03-03T04:18:01.296Z,70.80
2018-03-03T04:20:27.463Z,71.20
2018-03-03T04:22:53.558Z,71.00
2018-03-03T04:25:19.676Z,70.90
2018-03-03T04:27:45.809Z,71.40
2018-03-03T04:30:13.284Z,71.60
2018-03-03T04:32:39.428Z,71.60
2018-03-03T04:35:05.652Z,70.80
2018-03-03T04:37:31.849Z,70.60
2018-03-03T04:39:57.999Z,70.90
2018-03-03T04:42:27.015Z,71.30
2018-03-03T04:44:53.184Z,70.80
2018-03-03T04:47:19.422Z,71.10
2018-03-03T04:49:45.580Z,71.70
2018-03-03T04:52:11.760Z,72.00
2018-03-03T04:54:38.643Z,73.40
2018-03-03T04:57:04.772Z,73.30
2018-03-03T05:02:36.715Z,73.10
2018-03-03T05:08:11.740Z,73.70
2018-03-03T05:10:38.307Z,74.50
2018-03-03T05:13:20.051Z,75.30
2018-03-03T05:19:17.940Z,74.60
2018-03-03T05:21:50.255Z,74.60
2018-03-03T05:24:22.607Z,75.30
2018-03-03T05:26:54.790Z,75.60
2018-03-03T05:29:27.044Z,75.80
2018-03-03T05:31:57.071Z,75.40
2018-03-03T05:34:29.961Z,75.20
2018-03-03T05:37:02.095Z,76.10
2018-03-03T05:39:31.386Z,77.70
2018-03-03T05:42:03.688Z,77.20
2018-03-03T05:44:36.154Z,76.60
2018-03-03T05:47:09.151Z,77.20
2018-03-03T05:52:56.967Z,77.00
2018-03-03T05:55:29.227Z,78.00
2018-03-03T05:58:02.506Z,77.90
2018-03-03T06:00:35.056Z,77.80
2018-03-03T06:03:21.260Z,78.20
2018-03-03T06:06:03.227Z,78.20
2018-03-03T06:08:36.169Z,77.60
2018-03-03T06:11:02.394Z,77.70
2018-03-03T06:13:28.564Z,77.60
2018-03-03T06:15:54.843Z,77.50
2018-03-03T06:18:20.949Z,77.00
2018-03-03T06:20:47.090Z,77.00
2018-03-03T06:23:13.215Z,77.40
2018-03-03T06:25:39.310Z,77.70
2018-03-03T06:28:05.735Z,77.40
2018-03-03T06:30:32.647Z,77.60
2018-03-03T06:32:58.822Z,77.60
2018-03-03T06:35:24.920Z,76.40
2018-03-03T06:37:51.060Z,76.20
2018-03-03T06:40:17.168Z,76.40
2018-03-03T06:42:43.319Z,75.90
2018-03-03T06:45:09.444Z,75.50
2018-03-03T06:47:35.573Z,75.10
2018-03-03T06:50:02.597Z,75.20
2018-03-03T06:52:28.746Z,75.20
2018-03-03T06:54:54.867Z,75.20
2018-03-03T06:57:21.151Z,73.90
2018-03-03T06:59:47.415Z,74.20
2018-03-03T07:02:13.531Z,73.90
2018-03-03T07:04:43.255Z,71.70
2018-03-03T07:07:10.122Z,71.30
2018-03-03T07:09:36.250Z,71.30
2018-03-03T07:12:03.106Z,71.10
2018-03-03T07:14:29.474Z,71.10
2018-03-03T07:16:55.688Z,71.00
2018-03-03T07:19:22.649Z,70.30
2018-03-03T07:31:41.063Z,68.30
2018-03-03T07:34:07.167Z,67.70
2018-03-03T07:36:34.045Z,66.80
2018-03-03T07:39:00.204Z,66.80
2018-03-03T07:41:26.364Z,63.50
2018-03-03T07:43:52.513Z,57.70
2018-03-03T08:06:12.174Z,45.90
2018-03-03T08:11:06.996Z,45.40
2018-03-03T08:13:33.875Z,42.40
2018-03-03T08:15:59.985Z,42.30
2018-03-03T08:18:26.109Z,43.10
2018-03-03T08:20:52.325Z,41.80
2018-03-03T08:23:18.496Z,41.50
2018-03-03T08:25:45.345Z,39.00
2018-03-03T08:28:12.951Z,37.50
2018-03-03T08:55:20.673Z,37.50
2018-03-03T09:12:34.964Z,33.70
2018-03-03T09:15:01.096Z,33.60
2018-03-03T09:17:28.134Z,34.70
2018-03-03T09:19:54.343Z,34.80
2018-03-03T09:22:20.520Z,35.70
2018-03-03T09:24:46.686Z,35.20
2018-03-03T09:27:12.878Z,34.80
2018-03-03T09:29:39.026Z,34.40
2018-03-03T09:32:05.169Z,35.00
2018-03-03T09:34:31.357Z,34.70
2018-03-03T09:36:58.235Z,34.70
2018-03-03T09:39:24.332Z,34.70
2018-03-03T09:51:42.081Z,33.60
2018-03-03T09:54:08.173Z,29.90
2018-03-03T09:56:34.395Z,29.50
2018-03-03T09:59:00.592Z,30.30
2018-03-03T10:01:26.738Z,30.60
2018-03-03T10:03:52.952Z,29.40
2018-03-03T10:06:19.045Z,30.50
2018-03-03T10:08:45.974Z,30.20
2018-03-03T10:13:40.018Z,30.20
2018-03-03T10:16:06.858Z,30.20
2018-03-03T10:18:33.015Z,30.10
2018-03-03T10:20:59.909Z,31.30
2018-03-03T10:23:26.010Z,31.30
2018-03-03T10:25:52.891Z,30.90
2018-03-03T10:28:19.010Z,30.80
2018-03-03T10:30:45.168Z,29.80
2018-03-03T10:33:11.360Z,30.80
2018-03-03T10:35:37.487Z,30.60
2018-03-03T10:38:03.608Z,29.80
2018-03-03T10:40:29.839Z,29.60
2018-03-03T10:42:56.050Z,30.40
2018-03-03T10:45:22.180Z,29.60
2018-03-03T10:47:49.096Z,29.80
2018-03-03T10:50:15.222Z,29.70
2018-03-03T10:52:41.374Z,31.00
2018-03-03T10:55:07.503Z,30.60
2018-03-03T11:00:02.711Z,30.00
2018-03-03T11:02:28.897Z,29.80
2018-03-03T11:04:55.053Z,30.70
2018-03-03T11:07:21.143Z,30.80
2018-03-03T11:09:47.241Z,29.80
2018-03-03T11:12:13.473Z,30.50
2018-03-03T11:14:39.592Z,29.90
2018-03-03T11:17:06.531Z,30.60
2018-03-03T11:19:32.670Z,30.60
2018-03-03T11:21:58.818Z,30.10
2018-03-03T11:24:24.982Z,30.30
2018-03-03T11:26:51.827Z,30.20
2018-03-03T11:29:19.100Z,29.50
2018-03-03T11:31:45.203Z,29.80
2018-03-03T11:34:11.432Z,29.30
2018-03-03T11:36:37.567Z,27.80
2018-03-03T11:39:04.190Z,27.70
2018-03-03T11:41:30.421Z,28.80
2018-03-03T11:46:24.906Z,28.20
2018-03-03T11:58:43.237Z,29.20
2018-03-03T12:03:37.281Z,29.10
2018-03-03T12:06:03.439Z,29.20
2018-03-03T12:08:29.676Z,28.10
2018-03-03T12:10:55.802Z,28.30
2018-03-03T12:13:21.944Z,28.80
2018-03-03T12:15:48.986Z,27.70
2018-03-03T12:18:15.093Z,28.40
2018-03-03T12:20:41.954Z,28.90
2018-03-03T12:23:08.178Z,28.90
2018-03-03T12:25:34.286Z,27.70
2018-03-03T12:28:00.507Z,27.70
2018-03-03T12:30:26.665Z,27.30
2018-03-03T12:32:52.801Z,27.80
2018-03-03T12:35:18.931Z,28.30
2018-03-03T12:37:45.020Z,28.60
2018-03-03T12:40:11.869Z,27.70
2018-03-03T12:42:38.023Z,28.40
2018-03-03T12:45:04.201Z,27.90
2018-03-03T12:47:31.233Z,28.10
2018-03-03T12:49:59.281Z,27.10
2018-03-03T12:52:25.398Z,27.20
2018-03-03T12:54:51.522Z,28.70
2018-03-03T12:57:17.656Z,27.50
2018-03-03T13:14:31.201Z,30.10
2018-03-03T13:19:25.435Z,29.50
2018-03-03T13:21:51.604Z,29.00
2018-03-03T13:24:17.745Z,30.20
2018-03-03T13:58:51.966Z,32.30
2018-03-03T14:01:18.102Z,33.10
2018-03-03T14:06:12.836Z,32.90
2018-03-03T14:08:39.873Z,32.90
2018-03-03T14:11:06.060Z,33.60
2018-03-03T14:13:32.179Z,34.20
2018-03-03T14:15:58.447Z,34.20
2018-03-03T14:18:24.609Z,33.20
2018-03-03T14:20:50.716Z,33.60
2018-03-03T14:23:16.880Z,34.50
2018-03-03T14:25:42.975Z,34.60
2018-03-03T14:28:09.076Z,34.30
2018-03-03T14:30:35.973Z,34.80
2018-03-03T14:33:02.154Z,34.80
2018-03-03T15:09:58.750Z,38.90
2018-03-03T15:12:24.836Z,38.90
2018-03-03T15:14:50.965Z,39.30
2018-03-03T15:17:17.072Z,39.10
2018-03-03T15:19:43.182Z,39.20
2018-03-03T15:22:11.190Z,39.50
2018-03-03T15:24:37.313Z,39.60
2018-03-03T15:27:03.449Z,39.70
2018-03-03T15:29:29.622Z,40.10
2018-03-03T15:31:55.768Z,40.10
2018-03-03T15:34:21.841Z,40.30
2018-03-03T15:36:47.963Z,40.70
2018-03-03T15:39:14.088Z,40.60
2018-03-03T15:41:40.270Z,41.00
2018-03-03T15:44:06.491Z,41.60
2018-03-03T15:46:32.639Z,41.60
2018-03-03T15:48:59.581Z,41.50
2018-03-03T15:51:25.777Z,41.50
2018-03-03T15:53:51.911Z,41.70
2018-03-03T15:56:18.021Z,42.00
2018-03-03T15:58:44.938Z,42.20
2018-03-03T16:01:11.464Z,42.20
2018-03-03T16:03:37.584Z,42.70
2018-03-03T16:06:03.796Z,43.70
2018-03-03T16:08:30.896Z,43.30
2018-03-03T16:10:57.154Z,43.20
2018-03-03T16:13:24.250Z,43.70
2018-03-03T16:15:50.407Z,43.00
2018-03-03T16:18:17.266Z,43.60
2018-03-03T16:20:43.496Z,43.50
2018-03-03T16:26:18.533Z,44.10
2018-03-03T16:28:44.936Z,43.80
2018-03-03T16:31:11.829Z,44.00
2018-03-03T16:33:38.048Z,44.00
2018-03-03T16:36:04.175Z,44.50
2018-03-03T16:38:31.056Z,44.80
2018-03-03T16:40:57.202Z,44.70
2018-03-03T16:46:00.968Z,44.70
2018-03-03T16:48:27.108Z,45.10
2018-03-03T16:50:53.222Z,44.60
2018-03-03T16:53:19.369Z,44.10
2018-03-03T16:55:45.469Z,44.50
2018-03-03T16:58:11.570Z,44.80
2018-03-03T17:00:37.769Z,45.10
2018-03-03T17:03:03.882Z,45.50
2018-03-03T17:05:30.806Z,45.70
2018-03-03T17:07:56.934Z,45.70
2018-03-03T17:10:23.058Z,45.50
2018-03-03T17:12:49.196Z,46.00
2018-03-03T17:15:16.033Z,45.80
2018-03-03T17:17:42.148Z,45.50
2018-03-03T17:20:08.285Z,46.20
2018-03-03T17:22:35.800Z,46.20
2018-03-03T17:25:02.042Z,46.20
2018-03-03T17:27:28.221Z,46.40
2018-03-03T17:29:55.166Z,47.00
2018-03-03T17:32:21.406Z,47.00
2018-03-03T17:34:47.553Z,47.10
2018-03-03T17:37:13.705Z,47.00
2018-03-03T17:39:40.617Z,47.00
2018-03-03T17:42:06.736Z,47.00
2018-03-03T17:44:33.043Z,48.50
2018-03-03T17:46:59.543Z,48.00
2018-03-03T17:49:25.710Z,48.50
2018-03-03T17:51:51.849Z,48.40
2018-03-03T17:54:17.965Z,48.60
2018-03-03T17:56:44.058Z,48.30
2018-03-03T17:59:10.296Z,48.10
2018-03-03T18:01:37.186Z,48.40
2018-03-03T18:04:03.368Z,48.40
2018-03-03T18:06:29.682Z,48.40
2018-03-03T18:08:56.011Z,48.60
2018-03-03T18:11:22.197Z,48.50
2018-03-03T18:13:50.068Z,48.60
2018-03-03T18:16:16.332Z,48.60
2018-03-03T18:18:42.469Z,48.50
2018-03-03T18:21:09.373Z,48.60
2018-03-03T18:23:35.540Z,48.70
2018-03-03T18:26:01.824Z,49.10
2018-03-03T18:28:28.050Z,48.90
2018-03-03T18:30:54.980Z,48.90
2018-03-03T18:33:21.220Z,48.90
2018-03-03T18:35:47.413Z,49.00
2018-03-03T18:38:13.571Z,49.30
2018-03-03T18:40:39.764Z,49.90
2018-03-03T18:43:06.681Z,49.90
2018-03-03T18:45:32.830Z,49.90
2018-03-03T18:47:58.956Z,50.40
2018-03-03T18:50:25.146Z,49.80
2018-03-03T18:52:51.343Z,50.80
2018-03-03T18:55:17.474Z,50.40
2018-03-03T18:57:43.617Z,50.50
2018-03-03T19:00:09.711Z,50.70
2018-03-03T19:02:35.918Z,50.90
2018-03-03T19:05:02.102Z,51.10
2018-03-03T19:07:28.352Z,51.50
2018-03-03T19:09:54.508Z,51.90
2018-03-03T19:12:20.705Z,51.10
2018-03-03T19:14:46.821Z,51.60
2018-03-03T19:17:12.954Z,51.50
2018-03-03T19:19:39.126Z,51.90
2018-03-03T19:22:05.251Z,51.80
2018-03-03T19:24:32.211Z,52.00
2018-03-03T19:26:58.375Z,52.00
2018-03-03T19:29:24.551Z,52.50
2018-03-03T19:31:50.725Z,52.50
2018-03-03T19:34:17.644Z,52.60
2018-03-03T19:36:43.775Z,52.70
2018-03-03T19:39:09.914Z,52.40
2018-03-03T19:41:36.062Z,53.10
2018-03-03T19:44:02.206Z,53.20
2018-03-03T19:46:28.412Z,53.30
2018-03-03T19:48:54.575Z,52.80
2018-03-03T19:51:20.697Z,53.00
2018-03-03T19:53:46.975Z,53.40
2018-03-03T19:56:13.099Z,53.40
2018-03-03T19:58:39.247Z,53.20
2018-03-03T20:01:05.407Z,53.70
2018-03-03T20:03:31.542Z,53.70
2018-03-03T20:05:57.794Z,53.50
2018-03-03T20:08:23.928Z,53.40
2018-03-03T20:10:50.942Z,53.70
2018-03-03T20:13:17.043Z,53.70
2018-03-03T20:15:43.148Z,53.90
2018-03-03T20:18:09.290Z,53.70
2018-03-03T20:20:35.414Z,53.90
2018-03-03T20:23:01.600Z,53.80
2018-03-03T20:25:27.736Z,54.50
2018-03-03T20:27:53.835Z,55.00
2018-03-03T20:30:20.022Z,54.30
2018-03-03T20:32:46.170Z,54.60
2018-03-03T20:35:12.356Z,54.40
2018-03-03T20:37:38.465Z,54.40
2018-03-03T20:40:04.544Z,54.50
2018-03-03T20:42:31.494Z,54.70
2018-03-03T20:44:57.637Z,54.70
2018-03-03T20:47:23.832Z,55.10
2018-03-03T20:49:49.947Z,55.20
2018-03-03T20:52:16.046Z,55.20
2018-03-03T20:54:42.175Z,55.10
2018-03-03T20:57:08.317Z,55.20
2018-03-03T20:59:34.428Z,55.40
2018-03-03T21:02:00.916Z,55.30
2018-03-03T21:04:27.867Z,55.60
2018-03-03T21:06:54.006Z,55.40
2018-03-03T21:09:20.223Z,55.70
2018-03-03T21:11:53.231Z,55.30
2018-03-03T21:14:19.387Z,55.20
2018-03-03T21:16:45.539Z,55.80
2018-03-03T21:19:11.703Z,55.20
2018-03-03T21:21:37.859Z,55.50
2018-03-03T21:24:04.023Z,55.70
2018-03-03T21:26:30.168Z,55.70
2018-03-03T21:28:56.310Z,55.60
2018-03-03T21:31:22.463Z,56.00
2018-03-03T21:33:49.366Z,55.70
2018-03-03T21:36:15.500Z,55.70
2018-03-03T21:38:41.643Z,55.80
2018-03-03T21:41:08.615Z,55.90
2018-03-03T21:43:34.716Z,56.00
2018-03-03T21:46:00.956Z,56.10
2018-03-03T21:48:27.149Z,56.50
2018-03-03T21:50:53.285Z,56.10
2018-03-03T21:53:19.450Z,56.00
2018-03-03T21:55:45.699Z,56.50
2018-03-03T21:58:12.564Z,56.60
2018-03-03T22:00:38.690Z,56.60
2018-03-03T22:03:05.564Z,56.90
2018-03-03T22:05:31.690Z,56.90
2018-03-03T22:07:58.557Z,57.00
2018-03-03T22:10:24.795Z,57.00
2018-03-03T22:12:50.981Z,56.70
2018-03-03T22:15:17.187Z,57.10
2018-03-03T22:17:43.342Z,57.30
2018-03-03T22:20:09.442Z,57.10
2018-03-03T22:22:36.345Z,57.00
2018-03-03T22:25:02.519Z,57.00
2018-03-03T22:27:28.677Z,56.70
2018-03-03T22:29:54.776Z,56.50
2018-03-03T22:32:20.906Z,56.50
2018-03-03T22:34:47.065Z,56.70
2018-03-03T22:37:13.216Z,56.80
2018-03-03T22:39:39.415Z,56.90
2018-03-03T22:42:05.559Z,57.10
2018-03-03T22:44:31.685Z,56.70
2018-03-03T22:46:57.877Z,56.70
2018-03-03T22:49:24.095Z,56.60
2018-03-03T22:51:50.208Z,56.40
2018-03-03T22:54:16.348Z,56.80
2018-03-03T22:56:42.442Z,56.80
2018-03-03T22:59:08.567Z,56.60
2018-03-03T23:01:34.734Z,56.70
2018-03-03T23:04:00.914Z,56.90
2018-03-03T23:06:27.046Z,56.80
2018-03-03T23:08:53.230Z,56.70
2018-03-03T23:11:20.137Z,56.90
2018-03-03T23:13:46.302Z,57.00
2018-03-03T23:16:12.457Z,56.90
2018-03-03T23:18:39.296Z,57.70
2018-03-03T23:21:05.421Z,57.50
2018-03-03T23:23:31.600Z,57.20
2018-03-03T23:25:57.776Z,57.40
2018-03-03T23:28:23.927Z,57.20
2018-03-03T23:30:51.014Z,57.60
2018-03-03T23:33:17.137Z,57.50
2018-03-03T23:35:43.259Z,58.20
2018-03-03T23:38:09.454Z,57.20
2018-03-03T23:40:35.575Z,57.10
2018-03-03T23:43:01.739Z,57.10
2018-03-03T23:45:28.060Z,57.00
2018-03-03T23:47:54.911Z,56.80
2018-03-03T23:50:21.021Z,56.80
2018-03-03T23:52:47.154Z,57.20
2018-03-03T23:55:13.340Z,57.00
2018-03-03T23:57:40.024Z,56.80
